Armavir, Russia

3:58 PM MSK on July 03, 2015 (GMT +0300)
Shpakovskoye | | Change Station
CLOSE
Current Station
Airport
Location: Stavropol',
Elevation: 1483 ft
Nearby Weather Stations

Elev 1483 ft 45.12 °N, 42.08 °E | Updated 28 minutes ago

Light Rain Showers
Light Showers Rain
64 °F
Feels Like 64 °F
N
4
Wind Variable Wind from North

Today
High -- | Low -- °F
--% Chance of Precip.
Yesterday
High -- | Low -- °F
Precip. -- in
4:33 AM 8:05 PM
Full, 97% visible
Pressure 30.06 in
Visibility 2.5 miles
Clouds Scattered Clouds 1000 ft
Mostly Cloudy 1600 ft
Dew Point 63 °F
Humidity 94%
Rainfall 0.00 in
Snow Depth Not available.
UV 3 out of 12
Pollen Not available.
Air Quality Not available.
Flu Activity Not available.
METAR URMT 031230Z 36002MPS 4000 -SHRA SCT010 BKN016CB 18/17 Q1018 R07/290255 NOSIG RMK QFE723

More Conditions Fewer Conditions

Pressure 30.06 in
Visibility 2.5 miles
Clouds Scattered Clouds 1000 ft
Mostly Cloudy 1600 ft
Dew Point 63 °F
Humidity 94%
Rainfall 0.00 in
Snow Depth Not available.
UV 3 out of 12
Pollen Not available.
Air Quality Not available.
Flu Activity Not available.
METAR URMT 031230Z 36002MPS 4000 -SHRA SCT010 BKN016CB 18/17 Q1018 R07/290255 NOSIG RMK QFE723

More Conditions Fewer Conditions

10-Day Weather Forecast

×

Almanac

Astronomy

Jul. 03, 2015 Rise Set
Actual Time
Civil Twilight
Nautical Twilight
Astronomical Twilight
Moon
Length of Visible Light
Length of Day
Tomorrow will be .
, % of the Moon is Illuminated

Today's Extremes

Country Highs Country Lows

Community

WunderPhotos

Upload Photos

1,834,660 photos uploaded!

WunderBlogs® & News

Nearby

Air Quality

  Air Quality AQ Index Pollutant
Not available.

Snow Depth

Station Depth Elevation

Earthquake Activity

City Distance Mag. Time & Date
Minimum magnitude displayed is 2.5.

Coastal Water Temperatures

Place Temperature

Stations

Nearby Weather Stations

Station Location Temp. Windchill Dew Point Humidity Wind Precip. Elev Updated Type